sensor_id;sensor_type;location;lat;lon;timestamp;temperature;humidity
23719;DHT22;43322;52.230;5.702;2023-02-11T00:01:05;6.40;99.90
23719;DHT22;43322;52.230;5.702;2023-02-11T00:03:32;6.30;99.90
23719;DHT22;43322;52.230;5.702;2023-02-11T00:06:00;6.30;99.90
23719;DHT22;43322;52.230;5.702;2023-02-11T00:08:28;6.40;99.90
23719;DHT22;43322;52.230;5.702;2023-02-11T00:10:56;6.40;99.90
23719;DHT22;43322;52.230;5.702;2023-02-11T00:13:24;6.50;99.90
23719;DHT22;43322;52.230;5.702;2023-02-11T00:15:51;6.50;99.90
23719;DHT22;43322;52.230;5.702;2023-02-11T00:18:18;6.50;99.90
23719;DHT22;43322;52.230;5.702;2023-02-11T00:20:45;6.40;99.90
23719;DHT22;43322;52.230;5.702;2023-02-11T00:23:13;6.40;99.90
23719;DHT22;43322;52.230;5.702;2023-02-11T00:25:42;6.40;99.90
23719;DHT22;43322;52.230;5.702;2023-02-11T00:28:09;6.40;99.90
23719;DHT22;43322;52.230;5.702;2023-02-11T00:30:36;6.40;99.90
23719;DHT22;43322;52.230;5.702;2023-02-11T00:33:04;6.30;99.90
23719;DHT22;43322;52.230;5.702;2023-02-11T00:35:31;6.40;99.90
23719;DHT22;43322;52.230;5.702;2023-02-11T00:37:57;6.40;99.90
23719;DHT22;43322;52.230;5.702;2023-02-11T00:40:24;6.40;99.90
23719;DHT22;43322;52.230;5.702;2023-02-11T00:42:53;6.40;99.90
23719;DHT22;43322;52.230;5.702;2023-02-11T00:45:20;6.40;99.90
23719;DHT22;43322;52.230;5.702;2023-02-11T00:47:46;6.40;99.90
23719;DHT22;43322;52.230;5.702;2023-02-11T00:50:13;6.40;99.90
23719;DHT22;43322;52.230;5.702;2023-02-11T00:52:40;6.40;99.90
23719;DHT22;43322;52.230;5.702;2023-02-11T00:55:07;6.50;99.90
23719;DHT22;43322;52.230;5.702;2023-02-11T00:57:34;6.40;99.90
23719;DHT22;43322;52.230;5.702;2023-02-11T01:00:04;6.30;99.90
23719;DHT22;43322;52.230;5.702;2023-02-11T01:02:31;6.40;99.90
23719;DHT22;43322;52.230;5.702;2023-02-11T01:04:58;6.50;99.90
23719;DHT22;43322;52.230;5.702;2023-02-11T01:07:25;6.40;99.90
23719;DHT22;43322;52.230;5.702;2023-02-11T01:09:52;6.40;99.90
23719;DHT22;43322;52.230;5.702;2023-02-11T01:12:19;6.40;99.90
23719;DHT22;43322;52.230;5.702;2023-02-11T01:14:46;6.30;99.90
23719;DHT22;43322;52.230;5.702;2023-02-11T01:17:14;6.20;99.90
23719;DHT22;43322;52.230;5.702;2023-02-11T01:19:41;6.30;99.90
23719;DHT22;43322;52.230;5.702;2023-02-11T01:22:08;6.30;99.90
23719;DHT22;43322;52.230;5.702;2023-02-11T01:24:35;6.30;99.90
23719;DHT22;43322;52.230;5.702;2023-02-11T01:27:02;6.20;99.90
23719;DHT22;43322;52.230;5.702;2023-02-11T01:29:29;6.20;99.90
23719;DHT22;43322;52.230;5.702;2023-02-11T01:31:56;6.60;99.90
23719;DHT22;43322;52.230;5.702;2023-02-11T01:34:24;6.20;99.90
23719;DHT22;43322;52.230;5.702;2023-02-11T01:36:56;6.30;99.90
23719;DHT22;43322;52.230;5.702;2023-02-11T01:39:23;6.40;99.90
23719;DHT22;43322;52.230;5.702;2023-02-11T01:41:50;6.40;99.90
23719;DHT22;43322;52.230;5.702;2023-02-11T01:44:23;6.40;99.90
23719;DHT22;43322;52.230;5.702;2023-02-11T01:46:50;6.50;99.90
23719;DHT22;43322;52.230;5.702;2023-02-11T01:49:20;6.40;99.90
23719;DHT22;43322;52.230;5.702;2023-02-11T01:51:52;7.20;99.90
23719;DHT22;43322;52.230;5.702;2023-02-11T01:54:23;6.20;99.90
23719;DHT22;43322;52.230;5.702;2023-02-11T01:57:10;6.30;99.90
23719;DHT22;43322;52.230;5.702;2023-02-11T01:59:53;6.40;99.90
23719;DHT22;43322;52.230;5.702;2023-02-11T02:02:26;6.40;99.90
23719;DHT22;43322;52.230;5.702;2023-02-11T02:05:02;6.30;99.90
23719;DHT22;43322;52.230;5.702;2023-02-11T02:07:35;6.20;99.90
23719;DHT22;43322;52.230;5.702;2023-02-11T02:10:06;6.40;99.90
23719;DHT22;43322;52.230;5.702;2023-02-11T02:12:35;6.40;99.90
23719;DHT22;43322;52.230;5.702;2023-02-11T02:15:23;6.80;99.90
23719;DHT22;43322;52.230;5.702;2023-02-11T02:18:07;6.40;99.90
23719;DHT22;43322;52.230;5.702;2023-02-11T02:27:12;6.30;99.90
23719;DHT22;43322;52.230;5.702;2023-02-11T02:30:13;6.30;99.90
23719;DHT22;43322;52.230;5.702;2023-02-11T02:32:51;6.30;99.90
23719;DHT22;43322;52.230;5.702;2023-02-11T02:35:30;6.30;99.90
23719;DHT22;43322;52.230;5.702;2023-02-11T02:38:02;6.30;99.90
23719;DHT22;43322;52.230;5.702;2023-02-11T02:40:32;6.20;99.90
23719;DHT22;43322;52.230;5.702;2023-02-11T02:43:00;6.20;99.90
23719;DHT22;43322;52.230;5.702;2023-02-11T02:45:28;6.90;99.90
23719;DHT22;43322;52.230;5.702;2023-02-11T02:47:57;6.30;99.90
23719;DHT22;43322;52.230;5.702;2023-02-11T02:50:27;6.30;99.90
23719;DHT22;43322;52.230;5.702;2023-02-11T02:53:06;6.30;99.90
23719;DHT22;43322;52.230;5.702;2023-02-11T02:55:51;6.70;99.90
23719;DHT22;43322;52.230;5.702;2023-02-11T02:58:43;6.30;99.90
23719;DHT22;43322;52.230;5.702;2023-02-11T03:01:20;6.20;99.90
23719;DHT22;43322;52.230;5.702;2023-02-11T03:04:00;6.20;99.90
23719;DHT22;43322;52.230;5.702;2023-02-11T03:06:31;6.20;99.90
23719;DHT22;43322;52.230;5.702;2023-02-11T03:09:03;6.20;99.90
23719;DHT22;43322;52.230;5.702;2023-02-11T03:11:32;6.30;99.90
23719;DHT22;43322;52.230;5.702;2023-02-11T03:14:00;6.30;99.90
23719;DHT22;43322;52.230;5.702;2023-02-11T03:16:29;6.30;99.90
23719;DHT22;43322;52.230;5.702;2023-02-11T03:19:05;6.30;99.90
23719;DHT22;43322;52.230;5.702;2023-02-11T03:21:35;6.40;99.90
23719;DHT22;43322;52.230;5.702;2023-02-11T03:24:07;6.40;99.90
23719;DHT22;43322;52.230;5.702;2023-02-11T03:26:37;6.60;99.90
23719;DHT22;43322;52.230;5.702;2023-02-11T03:29:09;6.40;99.90
23719;DHT22;43322;52.230;5.702;2023-02-11T03:31:46;6.40;99.90
23719;DHT22;43322;52.230;5.702;2023-02-11T03:34:22;6.40;99.90
23719;DHT22;43322;52.230;5.702;2023-02-11T03:36:55;6.20;99.90
23719;DHT22;43322;52.230;5.702;2023-02-11T03:39:26;6.20;99.90
23719;DHT22;43322;52.230;5.702;2023-02-11T03:41:55;6.30;99.90
23719;DHT22;43322;52.230;5.702;2023-02-11T03:44:26;6.30;99.90
23719;DHT22;43322;52.230;5.702;2023-02-11T03:46:54;6.20;99.90
23719;DHT22;43322;52.230;5.702;2023-02-11T03:49:25;7.10;99.90
23719;DHT22;43322;52.230;5.702;2023-02-11T03:51:53;6.20;99.90
23719;DHT22;43322;52.230;5.702;2023-02-11T03:54:26;6.30;99.90
23719;DHT22;43322;52.230;5.702;2023-02-11T03:56:57;6.20;99.90
23719;DHT22;43322;52.230;5.702;2023-02-11T03:59:25;6.20;99.90
23719;DHT22;43322;52.230;5.702;2023-02-11T04:01:52;6.30;99.90
23719;DHT22;43322;52.230;5.702;2023-02-11T04:04:19;6.20;99.90
23719;DHT22;43322;52.230;5.702;2023-02-11T04:06:47;6.10;99.90
23719;DHT22;43322;52.230;5.702;2023-02-11T04:09:15;6.20;99.90
23719;DHT22;43322;52.230;5.702;2023-02-11T04:11:42;6.20;99.90
23719;DHT22;43322;52.230;5.702;2023-02-11T04:14:09;6.20;99.90
23719;DHT22;43322;52.230;5.702;2023-02-11T04:16:36;6.10;99.90
23719;DHT22;43322;52.230;5.702;2023-02-11T04:19:03;6.10;99.90
23719;DHT22;43322;52.230;5.702;2023-02-11T04:21:29;6.20;99.90
23719;DHT22;43322;52.230;5.702;2023-02-11T04:23:58;6.20;99.90
23719;DHT22;43322;52.230;5.702;2023-02-11T04:26:25;6.20;99.90
23719;DHT22;43322;52.230;5.702;2023-02-11T04:28:52;6.20;99.90
23719;DHT22;43322;52.230;5.702;2023-02-11T04:31:19;6.20;99.90
23719;DHT22;43322;52.230;5.702;2023-02-11T04:33:45;5.80;99.90
23719;DHT22;43322;52.230;5.702;2023-02-11T04:36:12;6.30;99.90
23719;DHT22;43322;52.230;5.702;2023-02-11T04:38:39;6.20;99.90
23719;DHT22;43322;52.230;5.702;2023-02-11T04:41:07;6.20;99.90
23719;DHT22;43322;52.230;5.702;2023-02-11T04:43:34;6.20;99.90
23719;DHT22;43322;52.230;5.702;2023-02-11T04:46:01;6.30;99.90
23719;DHT22;43322;52.230;5.702;2023-02-11T04:48:28;6.20;99.90
23719;DHT22;43322;52.230;5.702;2023-02-11T04:50:55;6.20;99.90
23719;DHT22;43322;52.230;5.702;2023-02-11T04:53:22;6.30;99.90
23719;DHT22;43322;52.230;5.702;2023-02-11T04:55:49;6.20;99.90
23719;DHT22;43322;52.230;5.702;2023-02-11T04:58:18;6.20;99.90
23719;DHT22;43322;52.230;5.702;2023-02-11T05:00:45;6.20;99.90
23719;DHT22;43322;52.230;5.702;2023-02-11T05:03:12;6.20;99.90
23719;DHT22;43322;52.230;5.702;2023-02-11T05:05:40;6.20;99.90
23719;DHT22;43322;52.230;5.702;2023-02-11T05:08:08;6.20;99.90
23719;DHT22;43322;52.230;5.702;2023-02-11T05:10:35;6.30;99.90
23719;DHT22;43322;52.230;5.702;2023-02-11T05:13:02;6.20;99.90
23719;DHT22;43322;52.230;5.702;2023-02-11T05:15:31;6.20;99.90
23719;DHT22;43322;52.230;5.702;2023-02-11T05:17:57;6.10;99.90
23719;DHT22;43322;52.230;5.702;2023-02-11T05:20:24;6.20;99.90
23719;DHT22;43322;52.230;5.702;2023-02-11T05:22:51;6.30;99.90
23719;DHT22;43322;52.230;5.702;2023-02-11T05:25:18;6.30;99.90
23719;DHT22;43322;52.230;5.702;2023-02-11T05:27:46;6.30;99.90
23719;DHT22;43322;52.230;5.702;2023-02-11T05:30:14;6.40;99.90
23719;DHT22;43322;52.230;5.702;2023-02-11T05:32:42;6.40;99.90
23719;DHT22;43322;52.230;5.702;2023-02-11T05:35:09;6.30;99.90
23719;DHT22;43322;52.230;5.702;2023-02-11T05:37:36;6.30;99.90
23719;DHT22;43322;52.230;5.702;2023-02-11T05:40:03;6.30;99.90
23719;DHT22;43322;52.230;5.702;2023-02-11T05:42:31;6.30;99.90
23719;DHT22;43322;52.230;5.702;2023-02-11T05:44:58;6.20;99.90
23719;DHT22;43322;52.230;5.702;2023-02-11T05:47:25;6.30;99.90
23719;DHT22;43322;52.230;5.702;2023-02-11T05:49:53;6.30;99.90
23719;DHT22;43322;52.230;5.702;2023-02-11T05:52:20;6.30;99.90
23719;DHT22;43322;52.230;5.702;2023-02-11T05:54:48;6.30;99.90
23719;DHT22;43322;52.230;5.702;2023-02-11T05:57:16;6.30;99.90
23719;DHT22;43322;52.230;5.702;2023-02-11T05:59:43;6.20;99.90
23719;DHT22;43322;52.230;5.702;2023-02-11T06:02:10;6.40;99.90
23719;DHT22;43322;52.230;5.702;2023-02-11T06:04:37;6.30;99.90
23719;DHT22;43322;52.230;5.702;2023-02-11T06:07:05;6.40;99.90
23719;DHT22;43322;52.230;5.702;2023-02-11T06:09:33;6.30;99.90
23719;DHT22;43322;52.230;5.702;2023-02-11T06:12:00;6.40;99.90
23719;DHT22;43322;52.230;5.702;2023-02-11T06:14:27;6.40;99.90
23719;DHT22;43322;52.230;5.702;2023-02-11T06:16:54;6.40;99.90
23719;DHT22;43322;52.230;5.702;2023-02-11T06:19:21;6.50;99.90
23719;DHT22;43322;52.230;5.702;2023-02-11T06:21:47;6.40;99.90
23719;DHT22;43322;52.230;5.702;2023-02-11T06:24:16;6.40;99.90
23719;DHT22;43322;52.230;5.702;2023-02-11T06:26:43;6.40;99.90
23719;DHT22;43322;52.230;5.702;2023-02-11T06:29:10;6.40;99.90
23719;DHT22;43322;52.230;5.702;2023-02-11T06:31:37;6.60;99.90
23719;DHT22;43322;52.230;5.702;2023-02-11T06:34:05;6.60;99.90
23719;DHT22;43322;52.230;5.702;2023-02-11T06:36:32;6.50;99.90
23719;DHT22;43322;52.230;5.702;2023-02-11T06:38:59;6.50;99.90
23719;DHT22;43322;52.230;5.702;2023-02-11T06:41:28;6.60;99.90
23719;DHT22;43322;52.230;5.702;2023-02-11T06:43:55;6.60;99.90
23719;DHT22;43322;52.230;5.702;2023-02-11T06:46:22;6.70;99.90
23719;DHT22;43322;52.230;5.702;2023-02-11T06:48:49;6.60;99.90
23719;DHT22;43322;52.230;5.702;2023-02-11T06:51:17;6.60;99.90
23719;DHT22;43322;52.230;5.702;2023-02-11T06:53:45;6.60;99.90
23719;DHT22;43322;52.230;5.702;2023-02-11T06:56:15;6.70;99.90
23719;DHT22;43322;52.230;5.702;2023-02-11T06:58:44;6.70;99.90
23719;DHT22;43322;52.230;5.702;2023-02-11T07:01:13;6.80;99.90
23719;DHT22;43322;52.230;5.702;2023-02-11T07:03:42;6.80;99.90
23719;DHT22;43322;52.230;5.702;2023-02-11T07:06:12;6.80;99.90
23719;DHT22;43322;52.230;5.702;2023-02-11T07:08:39;6.90;99.90
23719;DHT22;43322;52.230;5.702;2023-02-11T07:11:11;6.90;99.90
23719;DHT22;43322;52.230;5.702;2023-02-11T07:13:38;6.80;99.90
23719;DHT22;43322;52.230;5.702;2023-02-11T07:16:09;6.90;99.90
23719;DHT22;43322;52.230;5.702;2023-02-11T07:18:37;6.90;99.90
23719;DHT22;43322;52.230;5.702;2023-02-11T07:21:05;6.90;99.90
23719;DHT22;43322;52.230;5.702;2023-02-11T07:23:33;6.90;99.90
23719;DHT22;43322;52.230;5.702;2023-02-11T07:26:02;6.90;99.90
23719;DHT22;43322;52.230;5.702;2023-02-11T07:28:29;6.90;99.90
23719;DHT22;43322;52.230;5.702;2023-02-11T07:30:56;6.90;99.90
23719;DHT22;43322;52.230;5.702;2023-02-11T07:33:25;6.80;99.90
23719;DHT22;43322;52.230;5.702;2023-02-11T07:35:52;6.90;99.90
23719;DHT22;43322;52.230;5.702;2023-02-11T07:38:18;6.90;99.90
23719;DHT22;43322;52.230;5.702;2023-02-11T07:40:45;6.90;99.90
23719;DHT22;43322;52.230;5.702;2023-02-11T07:43:12;7.00;99.90
23719;DHT22;43322;52.230;5.702;2023-02-11T07:45:39;6.90;99.90
23719;DHT22;43322;52.230;5.702;2023-02-11T07:48:06;7.00;99.90
23719;DHT22;43322;52.230;5.702;2023-02-11T07:50:35;7.00;99.90
23719;DHT22;43322;52.230;5.702;2023-02-11T07:53:02;7.10;99.90
23719;DHT22;43322;52.230;5.702;2023-02-11T07:55:28;7.10;99.90
23719;DHT22;43322;52.230;5.702;2023-02-11T07:57:56;7.20;99.90
23719;DHT22;43322;52.230;5.702;2023-02-11T08:00:23;7.20;99.90
23719;DHT22;43322;52.230;5.702;2023-02-11T08:02:50;7.10;99.90
23719;DHT22;43322;52.230;5.702;2023-02-11T08:05:17;7.10;99.90
23719;DHT22;43322;52.230;5.702;2023-02-11T08:07:45;7.10;99.90
23719;DHT22;43322;52.230;5.702;2023-02-11T08:10:12;7.20;99.90
23719;DHT22;43322;52.230;5.702;2023-02-11T08:12:38;7.20;99.90
23719;DHT22;43322;52.230;5.702;2023-02-11T08:15:06;7.20;99.90
23719;DHT22;43322;52.230;5.702;2023-02-11T08:17:34;7.20;99.90
23719;DHT22;43322;52.230;5.702;2023-02-11T08:20:01;7.20;99.90
23719;DHT22;43322;52.230;5.702;2023-02-11T08:22:30;7.20;99.90
23719;DHT22;43322;52.230;5.702;2023-02-11T08:24:59;7.30;99.90
23719;DHT22;43322;52.230;5.702;2023-02-11T08:27:26;7.20;99.90
23719;DHT22;43322;52.230;5.702;2023-02-11T08:29:53;7.20;99.90
23719;DHT22;43322;52.230;5.702;2023-02-11T08:32:20;7.20;99.90
23719;DHT22;43322;52.230;5.702;2023-02-11T08:34:50;7.30;99.90
23719;DHT22;43322;52.230;5.702;2023-02-11T08:37:17;7.30;99.90
23719;DHT22;43322;52.230;5.702;2023-02-11T08:39:44;7.40;99.90
23719;DHT22;43322;52.230;5.702;2023-02-11T08:42:13;7.40;99.90
23719;DHT22;43322;52.230;5.702;2023-02-11T08:44:42;7.40;99.90
23719;DHT22;43322;52.230;5.702;2023-02-11T08:47:09;7.40;99.90
23719;DHT22;43322;52.230;5.702;2023-02-11T08:49:36;7.50;99.90
23719;DHT22;43322;52.230;5.702;2023-02-11T08:52:03;7.60;99.90
23719;DHT22;43322;52.230;5.702;2023-02-11T08:54:30;7.60;99.90
23719;DHT22;43322;52.230;5.702;2023-02-11T08:56:57;7.70;99.90
23719;DHT22;43322;52.230;5.702;2023-02-11T08:59:27;7.70;99.90
23719;DHT22;43322;52.230;5.702;2023-02-11T09:01:55;8.30;99.90
23719;DHT22;43322;52.230;5.702;2023-02-11T09:04:23;7.70;99.90
23719;DHT22;43322;52.230;5.702;2023-02-11T09:06:50;7.70;99.90
23719;DHT22;43322;52.230;5.702;2023-02-11T09:09:17;7.80;99.90
23719;DHT22;43322;52.230;5.702;2023-02-11T09:11:44;7.80;99.90
23719;DHT22;43322;52.230;5.702;2023-02-11T09:14:16;7.90;99.90
23719;DHT22;43322;52.230;5.702;2023-02-11T09:16:45;8.00;99.90
23719;DHT22;43322;52.230;5.702;2023-02-11T09:19:12;8.10;99.90
23719;DHT22;43322;52.230;5.702;2023-02-11T09:21:39;8.10;99.90
23719;DHT22;43322;52.230;5.702;2023-02-11T09:24:06;8.10;99.90
23719;DHT22;43322;52.230;5.702;2023-02-11T09:26:34;8.20;99.90
23719;DHT22;43322;52.230;5.702;2023-02-11T09:29:03;8.30;99.90
23719;DHT22;43322;52.230;5.702;2023-02-11T09:31:32;8.30;99.90
23719;DHT22;43322;52.230;5.702;2023-02-11T09:34:03;8.30;99.90
23719;DHT22;43322;52.230;5.702;2023-02-11T09:36:32;8.40;99.90
23719;DHT22;43322;52.230;5.702;2023-02-11T09:39:00;8.40;99.90
23719;DHT22;43322;52.230;5.702;2023-02-11T09:41:38;8.40;99.90
23719;DHT22;43322;52.230;5.702;2023-02-11T09:44:08;8.50;99.90
23719;DHT22;43322;52.230;5.702;2023-02-11T09:46:39;8.40;99.90
23719;DHT22;43322;52.230;5.702;2023-02-11T09:49:16;8.40;99.90
23719;DHT22;43322;52.230;5.702;2023-02-11T09:51:47;8.40;99.90
23719;DHT22;43322;52.230;5.702;2023-02-11T09:54:19;8.40;99.90
23719;DHT22;43322;52.230;5.702;2023-02-11T09:56:49;8.50;99.90
23719;DHT22;43322;52.230;5.702;2023-02-11T09:59:16;8.40;99.90
23719;DHT22;43322;52.230;5.702;2023-02-11T10:01:47;8.10;99.90
23719;DHT22;43322;52.230;5.702;2023-02-11T10:04:23;9.60;99.90
23719;DHT22;43322;52.230;5.702;2023-02-11T10:07:00;8.50;99.90
23719;DHT22;43322;52.230;5.702;2023-02-11T10:09:40;8.60;99.90
23719;DHT22;43322;52.230;5.702;2023-02-11T10:12:21;8.60;99.90
23719;DHT22;43322;52.230;5.702;2023-02-11T10:15:07;8.70;99.90
23719;DHT22;43322;52.230;5.702;2023-02-11T10:17:48;8.80;99.90
23719;DHT22;43322;52.230;5.702;2023-02-11T10:20:26;8.80;99.90
23719;DHT22;43322;52.230;5.702;2023-02-11T10:22:57;9.10;99.90
23719;DHT22;43322;52.230;5.702;2023-02-11T10:25:26;8.90;99.90
23719;DHT22;43322;52.230;5.702;2023-02-11T10:27:55;8.80;99.90
23719;DHT22;43322;52.230;5.702;2023-02-11T10:30:29;8.90;99.90
23719;DHT22;43322;52.230;5.702;2023-02-11T10:33:01;8.90;99.90
23719;DHT22;43322;52.230;5.702;2023-02-11T10:35:31;8.70;99.90
23719;DHT22;43322;52.230;5.702;2023-02-11T10:37:58;8.90;99.90
23719;DHT22;43322;52.230;5.702;2023-02-11T10:40:27;8.90;99.90
23719;DHT22;43322;52.230;5.702;2023-02-11T10:42:58;9.00;99.90
23719;DHT22;43322;52.230;5.702;2023-02-11T10:45:31;9.00;99.90
23719;DHT22;43322;52.230;5.702;2023-02-11T10:47:58;9.10;99.90
23719;DHT22;43322;52.230;5.702;2023-02-11T10:50:27;9.90;99.90
23719;DHT22;43322;52.230;5.702;2023-02-11T10:53:11;9.10;99.90
23719;DHT22;43322;52.230;5.702;2023-02-11T10:55:38;9.10;99.90
23719;DHT22;43322;52.230;5.702;2023-02-11T10:58:23;9.10;99.90
23719;DHT22;43322;52.230;5.702;2023-02-11T11:00:52;9.10;99.90
23719;DHT22;43322;52.230;5.702;2023-02-11T11:03:21;9.10;99.90
23719;DHT22;43322;52.230;5.702;2023-02-11T11:05:50;9.00;99.90
23719;DHT22;43322;52.230;5.702;2023-02-11T11:08:19;9.10;99.90
23719;DHT22;43322;52.230;5.702;2023-02-11T11:10:48;9.20;99.90
23719;DHT22;43322;52.230;5.702;2023-02-11T11:13:31;9.40;99.90
23719;DHT22;43322;52.230;5.702;2023-02-11T11:16:19;9.50;99.90
23719;DHT22;43322;52.230;5.702;2023-02-11T11:18:47;9.50;99.90
23719;DHT22;43322;52.230;5.702;2023-02-11T11:21:18;9.40;99.90
23719;DHT22;43322;52.230;5.702;2023-02-11T11:23:53;9.50;99.90
23719;DHT22;43322;52.230;5.702;2023-02-11T11:26:21;9.50;99.90
23719;DHT22;43322;52.230;5.702;2023-02-11T11:28:59;9.60;99.90
23719;DHT22;43322;52.230;5.702;2023-02-11T11:31:30;9.70;99.90
23719;DHT22;43322;52.230;5.702;2023-02-11T11:34:02;9.70;99.90
23719;DHT22;43322;52.230;5.702;2023-02-11T11:36:34;9.80;99.90
23719;DHT22;43322;52.230;5.702;2023-02-11T11:39:19;9.80;99.90
23719;DHT22;43322;52.230;5.702;2023-02-11T11:41:52;9.90;99.90
23719;DHT22;43322;52.230;5.702;2023-02-11T11:44:24;9.90;99.90
23719;DHT22;43322;52.230;5.702;2023-02-11T11:50:24;10.00;99.90
23719;DHT22;43322;52.230;5.702;2023-02-11T11:52:55;10.00;99.90
23719;DHT22;43322;52.230;5.702;2023-02-11T11:55:32;10.10;99.90
23719;DHT22;43322;52.230;5.702;2023-02-11T11:58:00;10.00;99.90
23719;DHT22;43322;52.230;5.702;2023-02-11T12:00:32;10.10;99.90
23719;DHT22;43322;52.230;5.702;2023-02-11T12:03:23;10.00;99.90
23719;DHT22;43322;52.230;5.702;2023-02-11T12:06:07;10.00;99.90
23719;DHT22;43322;52.230;5.702;2023-02-11T12:08:43;10.00;99.90
23719;DHT22;43322;52.230;5.702;2023-02-11T12:11:22;9.90;99.90
23719;DHT22;43322;52.230;5.702;2023-02-11T12:14:03;10.40;99.90
23719;DHT22;43322;52.230;5.702;2023-02-11T12:16:42;10.00;99.90
23719;DHT22;43322;52.230;5.702;2023-02-11T12:22:10;10.20;99.90
23719;DHT22;43322;52.230;5.702;2023-02-11T12:24:49;10.30;99.90
23719;DHT22;43322;52.230;5.702;2023-02-11T12:27:26;10.40;99.90
23719;DHT22;43322;52.230;5.702;2023-02-11T12:30:03;10.80;99.90
23719;DHT22;43322;52.230;5.702;2023-02-11T12:32:41;10.60;99.90
23719;DHT22;43322;52.230;5.702;2023-02-11T12:35:35;11.10;99.90
23719;DHT22;43322;52.230;5.702;2023-02-11T12:38:24;10.70;99.90
23719;DHT22;43322;52.230;5.702;2023-02-11T12:41:03;10.70;99.90
23719;DHT22;43322;52.230;5.702;2023-02-11T12:43:37;10.90;99.90
23719;DHT22;43322;52.230;5.702;2023-02-11T12:46:26;10.80;99.90
23719;DHT22;43322;52.230;5.702;2023-02-11T12:49:10;10.90;99.90
23719;DHT22;43322;52.230;5.702;2023-02-11T12:51:51;11.00;99.90
23719;DHT22;43322;52.230;5.702;2023-02-11T12:54:23;10.90;99.90
23719;DHT22;43322;52.230;5.702;2023-02-11T12:56:54;10.90;99.90
23719;DHT22;43322;52.230;5.702;2023-02-11T12:59:34;10.80;99.90
23719;DHT22;43322;52.230;5.702;2023-02-11T13:02:13;10.80;99.90
23719;DHT22;43322;52.230;5.702;2023-02-11T13:04:48;11.00;99.90
23719;DHT22;43322;52.230;5.702;2023-02-11T13:07:20;11.10;99.90
23719;DHT22;43322;52.230;5.702;2023-02-11T13:09:51;11.10;99.90
23719;DHT22;43322;52.230;5.702;2023-02-11T13:12:20;11.10;99.90
23719;DHT22;43322;52.230;5.702;2023-02-11T13:15:12;11.00;99.90
23719;DHT22;43322;52.230;5.702;2023-02-11T13:17:45;11.00;99.90
23719;DHT22;43322;52.230;5.702;2023-02-11T13:20:20;11.50;99.90
23719;DHT22;43322;52.230;5.702;2023-02-11T13:22:55;11.10;99.90
23719;DHT22;43322;52.230;5.702;2023-02-11T13:25:29;11.00;99.90
23719;DHT22;43322;52.230;5.702;2023-02-11T13:28:04;11.00;99.90
23719;DHT22;43322;52.230;5.702;2023-02-11T13:30:35;11.10;99.90
23719;DHT22;43322;52.230;5.702;2023-02-11T13:33:19;11.30;99.90
23719;DHT22;43322;52.230;5.702;2023-02-11T13:36:22;11.50;99.90
23719;DHT22;43322;52.230;5.702;2023-02-11T13:38:52;11.60;99.90
23719;DHT22;43322;52.230;5.702;2023-02-11T13:41:23;11.80;99.90
23719;DHT22;43322;52.230;5.702;2023-02-11T13:44:01;12.40;99.90
23719;DHT22;43322;52.230;5.702;2023-02-11T13:46:48;12.30;99.90
23719;DHT22;43322;52.230;5.702;2023-02-11T13:49:20;12.30;99.90
23719;DHT22;43322;52.230;5.702;2023-02-11T13:51:48;11.90;99.90
23719;DHT22;43322;52.230;5.702;2023-02-11T13:54:22;12.00;99.90
23719;DHT22;43322;52.230;5.702;2023-02-11T13:59:51;12.20;99.90
23719;DHT22;43322;52.230;5.702;2023-02-11T14:02:26;12.10;99.90
23719;DHT22;43322;52.230;5.702;2023-02-11T14:05:25;11.80;99.90
23719;DHT22;43322;52.230;5.702;2023-02-11T14:08:14;11.50;99.90
23719;DHT22;43322;52.230;5.702;2023-02-11T14:10:59;11.30;99.90
23719;DHT22;43322;52.230;5.702;2023-02-11T14:13:28;11.10;99.90
23719;DHT22;43322;52.230;5.702;2023-02-11T14:16:06;11.10;99.90
23719;DHT22;43322;52.230;5.702;2023-02-11T14:18:57;11.60;99.90
23719;DHT22;43322;52.230;5.702;2023-02-11T14:21:32;10.90;99.90
23719;DHT22;43322;52.230;5.702;2023-02-11T14:27:06;10.80;99.90
23719;DHT22;43322;52.230;5.702;2023-02-11T14:29:38;10.70;99.90
23719;DHT22;43322;52.230;5.702;2023-02-11T14:32:14;10.50;99.90
23719;DHT22;43322;52.230;5.702;2023-02-11T14:34:52;10.40;99.90
23719;DHT22;43322;52.230;5.702;2023-02-11T14:37:30;10.30;99.90
23719;DHT22;43322;52.230;5.702;2023-02-11T14:40:09;10.30;99.90
23719;DHT22;43322;52.230;5.702;2023-02-11T14:42:40;10.20;99.90
23719;DHT22;43322;52.230;5.702;2023-02-11T14:45:09;10.20;99.90
23719;DHT22;43322;52.230;5.702;2023-02-11T14:47:40;10.40;99.90
23719;DHT22;43322;52.230;5.702;2023-02-11T14:50:16;10.50;99.90
23719;DHT22;43322;52.230;5.702;2023-02-11T14:52:43;10.30;99.90
23719;DHT22;43322;52.230;5.702;2023-02-11T14:55:17;10.20;99.90
23719;DHT22;43322;52.230;5.702;2023-02-11T14:57:47;10.20;99.90
23719;DHT22;43322;52.230;5.702;2023-02-11T15:00:18;10.30;99.90
23719;DHT22;43322;52.230;5.702;2023-02-11T15:02:46;10.40;99.90
23719;DHT22;43322;52.230;5.702;2023-02-11T15:05:17;10.30;99.90
23719;DHT22;43322;52.230;5.702;2023-02-11T15:07:46;10.20;99.90
23719;DHT22;43322;52.230;5.702;2023-02-11T15:10:23;10.20;99.90
23719;DHT22;43322;52.230;5.702;2023-02-11T15:12:51;10.20;99.90
23719;DHT22;43322;52.230;5.702;2023-02-11T15:15:18;10.10;99.90
23719;DHT22;43322;52.230;5.702;2023-02-11T15:17:45;10.20;99.90
23719;DHT22;43322;52.230;5.702;2023-02-11T15:20:19;10.00;99.90
23719;DHT22;43322;52.230;5.702;2023-02-11T15:22:51;10.40;99.90
23719;DHT22;43322;52.230;5.702;2023-02-11T15:25:20;9.90;99.90
23719;DHT22;43322;52.230;5.702;2023-02-11T15:27:49;9.80;99.90
23719;DHT22;43322;52.230;5.702;2023-02-11T15:30:24;9.70;99.90
23719;DHT22;43322;52.230;5.702;2023-02-11T15:32:54;9.60;99.90
23719;DHT22;43322;52.230;5.702;2023-02-11T15:35:26;9.60;99.90
23719;DHT22;43322;52.230;5.702;2023-02-11T15:37:54;9.50;99.90
23719;DHT22;43322;52.230;5.702;2023-02-11T15:40:23;9.40;99.90
23719;DHT22;43322;52.230;5.702;2023-02-11T15:42:56;9.40;99.90
23719;DHT22;43322;52.230;5.702;2023-02-11T15:45:25;9.30;99.90
23719;DHT22;43322;52.230;5.702;2023-02-11T15:48:06;9.40;99.90
23719;DHT22;43322;52.230;5.702;2023-02-11T15:50:37;9.30;99.90
23719;DHT22;43322;52.230;5.702;2023-02-11T15:53:20;8.60;99.90
23719;DHT22;43322;52.230;5.702;2023-02-11T15:55:48;9.20;99.90
23719;DHT22;43322;52.230;5.702;2023-02-11T15:58:16;9.20;99.90
23719;DHT22;43322;52.230;5.702;2023-02-11T16:00:46;9.10;99.90
23719;DHT22;43322;52.230;5.702;2023-02-11T16:03:19;9.00;99.90
23719;DHT22;43322;52.230;5.702;2023-02-11T16:05:48;9.10;99.90
23719;DHT22;43322;52.230;5.702;2023-02-11T16:08:20;9.00;99.90
23719;DHT22;43322;52.230;5.702;2023-02-11T16:10:56;9.00;99.90
23719;DHT22;43322;52.230;5.702;2023-02-11T16:13:24;9.20;99.90
23719;DHT22;43322;52.230;5.702;2023-02-11T16:15:53;8.70;99.90
23719;DHT22;43322;52.230;5.702;2023-02-11T16:18:28;8.80;99.90
23719;DHT22;43322;52.230;5.702;2023-02-11T16:20:57;8.80;99.90
23719;DHT22;43322;52.230;5.702;2023-02-11T16:23:27;8.70;99.90
23719;DHT22;43322;52.230;5.702;2023-02-11T16:25:57;8.80;99.90